createdAt,value
2024-01-15T00:01:08.118Z,4.57
2024-01-15T00:06:06.514Z,4.39
2024-01-15T00:11:03.448Z,4.54
2024-01-15T00:16:00.372Z,4.43
2024-01-15T00:20:57.568Z,4.37
2024-01-15T00:25:55.176Z,4.29
2024-01-15T00:30:52.049Z,4.40
2024-01-15T00:35:48.984Z,4.45
2024-01-15T00:40:45.860Z,4.08
2024-01-15T00:45:43.707Z,3.95
2024-01-15T00:50:40.682Z,4.31
2024-01-15T00:55:38.284Z,4.27
2024-01-15T01:00:35.296Z,3.78
2024-01-15T01:05:33.062Z,4.03
2024-01-15T01:10:29.966Z,4.09
2024-01-15T01:15:27.856Z,3.69
2024-01-15T01:20:24.827Z,4.07
2024-01-15T01:25:22.688Z,3.92
2024-01-15T01:30:19.822Z,4.11
2024-01-15T01:35:16.822Z,4.10
2024-01-15T01:40:14.051Z,3.86
2024-01-15T01:45:12.628Z,4.00
2024-01-15T01:50:09.774Z,4.07
2024-01-15T01:55:08.915Z,3.96
2024-01-15T02:00:08.086Z,3.51
2024-01-15T02:05:15.089Z,3.99
2024-01-15T02:10:11.943Z,3.97
2024-01-15T02:15:09.096Z,3.92
2024-01-15T02:20:07.264Z,3.86
2024-01-15T02:25:05.748Z,3.51
2024-01-15T02:30:02.970Z,3.78
2024-01-15T02:34:59.972Z,3.74
2024-01-15T02:39:57.004Z,3.74
2024-01-15T02:44:54.751Z,3.62
2024-01-15T02:49:52.017Z,3.66
2024-01-15T02:54:49.331Z,3.26
2024-01-15T02:59:49.051Z,3.50
2024-01-15T03:04:47.195Z,3.11
2024-01-15T03:09:44.441Z,3.51
2024-01-15T03:14:41.828Z,3.26
2024-01-15T03:19:39.067Z,3.49
2024-01-15T03:24:37.057Z,3.43
2024-01-15T03:29:34.161Z,3.26
2024-01-15T03:34:31.284Z,3.39
2024-01-15T03:39:28.345Z,3.36
2024-01-15T03:44:26.295Z,3.02
2024-01-15T03:49:23.595Z,2.81
2024-01-15T03:54:23.494Z,3.04
2024-01-15T03:59:20.760Z,2.85
2024-01-15T04:04:18.920Z,2.84
2024-01-15T04:09:16.062Z,2.63
2024-01-15T04:14:13.181Z,1.88
2024-01-15T04:19:10.372Z,2.02
2024-01-15T04:24:09.532Z,2.13
2024-01-15T04:29:06.905Z,2.21
2024-01-15T04:34:04.034Z,1.33
2024-01-15T04:39:01.124Z,2.14
2024-01-15T04:44:00.906Z,2.17
2024-01-15T04:48:58.329Z,2.05
2024-01-15T04:53:56.312Z,2.29
2024-01-15T04:58:53.292Z,1.91
2024-01-15T05:03:52.116Z,2.20
2024-01-15T05:08:49.208Z,2.15
2024-01-15T05:13:46.237Z,1.93
2024-01-15T05:18:46.364Z,1.73
2024-01-15T05:23:47.680Z,2.09
2024-01-15T05:28:45.202Z,1.91
2024-01-15T05:33:44.187Z,1.77
2024-01-15T05:38:43.282Z,1.62
2024-01-15T05:43:42.441Z,1.80
2024-01-15T05:48:39.773Z,1.73
2024-01-15T05:53:38.918Z,1.91
2024-01-15T05:58:36.006Z,1.64
2024-01-15T06:03:33.736Z,1.83
2024-01-15T06:08:33.887Z,1.71
2024-01-15T06:13:31.256Z,1.58
2024-01-15T06:18:29.272Z,1.64
2024-01-15T06:23:27.950Z,1.30
2024-01-15T06:28:25.269Z,0.95
2024-01-15T06:33:22.914Z,1.92
2024-01-15T06:38:22.841Z,1.58
2024-01-15T06:43:21.075Z,2.15
2024-01-15T06:48:18.914Z,2.52
2024-01-15T06:53:16.063Z,2.28
2024-01-15T06:58:13.336Z,2.03
2024-01-15T07:03:12.224Z,2.60
2024-01-15T07:08:09.212Z,2.40
2024-01-15T07:13:10.518Z,2.25
2024-01-15T07:18:08.482Z,2.37
2024-01-15T07:23:07.467Z,2.07
2024-01-15T07:28:06.007Z,2.33
2024-01-15T07:33:05.155Z,3.09
2024-01-15T07:38:03.188Z,3.22
2024-01-15T07:43:01.995Z,2.65
2024-01-15T07:47:59.182Z,2.51
2024-01-15T07:52:58.502Z,3.01
2024-01-15T07:58:06.713Z,3.13
2024-01-15T08:03:14.464Z,3.33
2024-01-15T08:08:12.210Z,3.64
2024-01-15T08:13:10.182Z,4.04
2024-01-15T08:18:10.487Z,4.39
2024-01-15T08:23:10.804Z,4.15
2024-01-15T08:28:08.794Z,4.52
2024-01-15T08:33:11.498Z,4.61
2024-01-15T08:38:16.217Z,5.07
2024-01-15T08:43:14.296Z,5.25
2024-01-15T08:48:13.707Z,5.61
2024-01-15T08:53:10.851Z,5.82
2024-01-15T08:58:09.127Z,5.99
2024-01-15T09:03:08.959Z,6.28
2024-01-15T09:08:06.860Z,6.87
2024-01-15T09:13:05.190Z,7.09
2024-01-15T09:18:07.161Z,7.56
2024-01-15T09:23:13.501Z,7.84
2024-01-15T09:28:11.129Z,7.53
2024-01-15T09:33:10.152Z,8.43
2024-01-15T09:38:08.080Z,8.81
2024-01-15T09:43:05.789Z,9.16
2024-01-15T09:48:03.319Z,9.42
2024-01-15T09:53:02.605Z,9.45
2024-01-15T09:58:04.961Z,10.29
2024-01-15T10:03:04.012Z,10.62
2024-01-15T10:08:06.290Z,10.59
2024-01-15T10:13:05.362Z,11.19
2024-01-15T10:18:04.768Z,11.43
2024-01-15T10:23:02.806Z,11.62
2024-01-15T10:28:04.850Z,11.67
2024-01-15T10:33:03.515Z,11.79
2024-01-15T10:38:01.709Z,11.89
2024-01-15T10:42:59.570Z,11.61
2024-01-15T10:47:59.372Z,11.24
2024-01-15T10:52:57.456Z,11.47
2024-01-15T10:57:57.085Z,11.07
2024-01-15T11:02:58.286Z,10.61
2024-01-15T11:07:57.005Z,11.49
2024-01-15T11:12:54.380Z,11.66
2024-01-15T11:18:03.888Z,11.66
2024-01-15T11:23:03.528Z,12.20
2024-01-15T11:28:00.692Z,12.50
2024-01-15T11:32:57.809Z,12.35
2024-01-15T11:37:59.169Z,12.84
2024-01-15T11:42:56.730Z,13.31
2024-01-15T11:48:11.039Z,13.47
2024-01-15T11:53:18.268Z,13.39
2024-01-15T11:58:16.615Z,13.28
2024-01-15T12:03:13.892Z,13.54
2024-01-15T12:08:11.961Z,13.64
2024-01-15T12:13:12.940Z,13.85
2024-01-15T12:18:11.766Z,14.05
2024-01-15T12:23:09.732Z,13.90
2024-01-15T12:28:08.317Z,14.16
2024-01-15T12:33:10.354Z,14.09
2024-01-15T12:38:07.925Z,13.90
2024-01-15T12:43:07.741Z,13.79
2024-01-15T12:48:06.003Z,13.92
2024-01-15T12:53:03.438Z,13.60
2024-01-15T12:58:03.800Z,13.68
2024-01-15T13:03:04.462Z,13.70
2024-01-15T13:08:04.154Z,13.92
2024-01-15T13:13:10.238Z,13.45
2024-01-15T13:18:08.730Z,13.39
2024-01-15T13:23:06.410Z,13.30
2024-01-15T13:28:05.471Z,12.67
2024-01-15T13:33:05.234Z,13.11
2024-01-15T13:38:03.716Z,13.15
2024-01-15T13:43:01.979Z,13.09
2024-01-15T13:48:01.651Z,12.34
2024-01-15T13:53:00.429Z,12.70
2024-01-15T13:58:00.525Z,12.56
2024-01-15T14:02:58.297Z,12.49
2024-01-15T14:07:56.098Z,12.39
2024-01-15T14:12:53.243Z,12.68
2024-01-15T14:17:51.941Z,11.81
2024-01-15T14:22:49.150Z,12.39
2024-01-15T14:27:46.376Z,12.12
2024-01-15T14:32:43.621Z,12.16
2024-01-15T14:37:41.723Z,12.18
2024-01-15T14:42:39.146Z,11.91
2024-01-15T14:47:38.922Z,11.71
2024-01-15T14:52:36.842Z,11.79
2024-01-15T14:58:03.430Z,11.37
2024-01-15T15:03:00.644Z,11.16
2024-01-15T15:07:59.948Z,10.71
2024-01-15T15:12:59.718Z,10.81
2024-01-15T15:17:57.047Z,10.42
2024-01-15T15:22:56.321Z,10.78
2024-01-15T15:27:53.303Z,10.64
2024-01-15T15:32:51.049Z,10.71
2024-01-15T15:37:49.274Z,10.20
2024-01-15T15:42:49.374Z,10.21
2024-01-15T15:47:46.798Z,10.11
2024-01-15T15:52:45.661Z,10.11
2024-01-15T15:57:43.617Z,10.16
2024-01-15T16:02:40.944Z,10.12
2024-01-15T16:07:40.605Z,9.42
2024-01-15T16:12:40.209Z,9.62
2024-01-15T16:23:16.389Z,9.29
2024-01-15T16:23:44.753Z,8.54
2024-01-15T16:28:14.917Z,8.61
2024-01-15T16:33:14.452Z,8.89
2024-01-15T16:38:12.471Z,8.64
2024-01-15T16:43:09.841Z,8.02
2024-01-15T16:48:08.487Z,8.25
2024-01-15T16:53:05.858Z,8.40
2024-01-15T16:58:07.969Z,8.24
2024-01-15T17:03:08.336Z,7.92
2024-01-15T17:08:09.579Z,7.70
2024-01-15T17:13:08.335Z,7.75
2024-01-15T17:18:16.844Z,7.14
2024-01-15T17:23:16.818Z,7.33
2024-01-15T17:28:14.178Z,7.84
2024-01-15T17:33:11.998Z,7.53
2024-01-15T17:38:10.873Z,7.67
2024-01-15T17:43:11.228Z,7.57
2024-01-15T17:48:35.366Z,7.37
2024-01-15T17:53:33.064Z,7.63
2024-01-15T17:58:44.013Z,7.97
2024-01-15T18:03:42.901Z,7.17
2024-01-15T18:09:02.479Z,7.36
2024-01-15T18:14:22.506Z,7.84
2024-01-15T18:19:49.731Z,7.67
2024-01-15T18:24:50.617Z,7.26
2024-01-15T18:29:49.213Z,7.71
2024-01-15T18:34:47.477Z,7.98
2024-01-15T18:39:44.672Z,8.07
2024-01-15T18:44:45.503Z,7.79
2024-01-15T18:49:43.446Z,7.66
2024-01-15T18:54:41.582Z,7.96
2024-01-15T18:59:40.663Z,7.96
2024-01-15T19:04:38.370Z,7.48
2024-01-15T19:09:36.444Z,7.86
2024-01-15T19:14:34.617Z,7.66
2024-01-15T19:19:35.364Z,8.16
2024-01-15T19:24:33.242Z,8.06
2024-01-15T19:29:30.488Z,8.09
2024-01-15T19:34:27.691Z,7.93
2024-01-15T19:39:29.151Z,8.31
2024-01-15T19:44:28.536Z,8.34
2024-01-15T19:49:32.608Z,8.35
2024-01-15T19:54:33.096Z,8.18
2024-01-15T19:59:32.291Z,8.21
2024-01-15T20:04:34.063Z,8.46
2024-01-15T20:09:33.111Z,8.25
2024-01-15T20:14:38.224Z,7.92
2024-01-15T20:19:36.151Z,7.91
2024-01-15T20:24:33.797Z,8.42
2024-01-15T20:29:32.679Z,8.35
2024-01-15T20:34:29.994Z,8.32
2024-01-15T20:39:30.586Z,8.16
2024-01-15T20:44:27.867Z,7.90
2024-01-15T20:49:28.773Z,8.05
2024-01-15T20:54:35.640Z,8.06
2024-01-15T20:59:36.182Z,8.26
2024-01-15T21:04:35.793Z,7.77
2024-01-15T21:09:39.918Z,8.31
2024-01-15T21:14:39.059Z,7.66
2024-01-15T21:19:37.408Z,8.42
2024-01-15T21:24:37.411Z,8.42
2024-01-15T21:29:34.549Z,8.44
2024-01-15T21:34:31.818Z,8.04
2024-01-15T21:39:30.943Z,8.35
2024-01-15T21:44:28.105Z,8.26
2024-01-15T21:49:28.663Z,8.04
2024-01-15T21:54:26.754Z,7.96
2024-01-15T21:59:26.669Z,8.19
2024-01-15T22:04:25.069Z,8.34
2024-01-15T22:09:23.083Z,8.36
2024-01-15T22:14:20.765Z,8.80
2024-01-15T22:19:18.783Z,8.96
2024-01-15T22:24:16.987Z,9.14
2024-01-15T22:29:14.811Z,9.40
2024-01-15T22:34:12.219Z,9.72
2024-01-15T22:39:10.223Z,9.95
2024-01-15T22:44:07.916Z,9.84
2024-01-15T22:49:05.928Z,9.91
2024-01-15T22:54:03.887Z,10.41
2024-01-15T22:59:02.491Z,10.15
2024-01-15T23:03:59.875Z,10.51
2024-01-15T23:09:00.535Z,10.60
2024-01-15T23:13:58.145Z,9.93
2024-01-15T23:18:56.670Z,10.52
2024-01-15T23:23:54.987Z,10.75
2024-01-15T23:28:52.732Z,10.64
2024-01-15T23:33:49.935Z,10.56
2024-01-15T23:38:48.464Z,10.80
2024-01-15T23:43:45.611Z,10.50
2024-01-15T23:48:42.954Z,10.76
2024-01-15T23:53:40.684Z,10.53
2024-01-15T23:58:38.369Z,10.70
